createdAt,value
2023-03-14T00:00:52.593Z,2.40
2023-03-14T00:01:52.566Z,2.20
2023-03-14T00:02:52.577Z,2.30
2023-03-14T00:03:52.505Z,2.20
2023-03-14T00:04:52.475Z,2.40
2023-03-14T00:05:52.446Z,2.20
2023-03-14T00:06:52.416Z,2.30
2023-03-14T00:07:52.431Z,2.40
2023-03-14T00:08:52.361Z,2.30
2023-03-14T00:09:52.334Z,2.50
2023-03-14T00:10:52.303Z,2.50
2023-03-14T00:11:52.281Z,2.20
2023-03-14T00:12:52.250Z,2.40
2023-03-14T00:13:52.220Z,2.60
2023-03-14T00:14:52.198Z,2.60
2023-03-14T00:15:52.198Z,2.50
2023-03-14T00:16:52.136Z,2.60
2023-03-14T00:17:52.119Z,2.00
2023-03-14T00:18:52.082Z,1.60
2023-03-14T00:19:52.049Z,1.50
2023-03-14T00:20:52.029Z,1.60
2023-03-14T00:21:51.992Z,1.40
2023-03-14T00:22:51.969Z,1.30
2023-03-14T00:23:51.956Z,1.40
2023-03-14T00:24:51.918Z,1.20
2023-03-14T00:25:51.878Z,1.20
2023-03-14T00:26:51.849Z,1.00
2023-03-14T00:27:51.828Z,1.00
2023-03-14T00:28:51.791Z,1.20
2023-03-14T00:29:51.763Z,1.10
2023-03-14T00:30:51.758Z,1.20
2023-03-14T00:31:51.713Z,1.10
2023-03-14T00:32:51.696Z,1.00
2023-03-14T00:33:51.644Z,0.90
2023-03-14T00:34:51.615Z,0.90
2023-03-14T00:35:51.636Z,1.00
2023-03-14T00:36:51.559Z,0.90
2023-03-14T00:37:51.528Z,1.10
2023-03-14T00:38:51.499Z,0.90
2023-03-14T00:39:51.490Z,0.90
2023-03-14T00:40:51.441Z,0.80
2023-03-14T00:41:51.413Z,0.80
2023-03-14T00:42:51.383Z,0.80
2023-03-14T00:43:51.358Z,0.80
2023-03-14T00:44:51.333Z,0.80
2023-03-14T00:45:51.333Z,0.90
2023-03-14T00:46:51.407Z,0.80
2023-03-14T00:47:51.313Z,0.90
2023-03-14T00:48:51.209Z,0.80
2023-03-14T00:49:51.178Z,0.90
2023-03-14T00:50:51.151Z,0.80
2023-03-14T00:51:51.119Z,0.90
2023-03-14T00:52:52.095Z,0.80
2023-03-14T00:53:51.064Z,0.80
2023-03-14T00:54:51.033Z,0.80
2023-03-14T00:55:51.033Z,0.80
2023-03-14T00:56:50.975Z,0.80
2023-03-14T00:57:50.942Z,0.80
2023-03-14T00:58:50.913Z,0.80
2023-03-14T00:59:50.884Z,0.80
2023-03-14T01:00:50.861Z,0.90
2023-03-14T01:01:50.843Z,0.80
2023-03-14T01:02:50.854Z,0.80
2023-03-14T01:03:50.768Z,0.90
2023-03-14T01:04:50.750Z,0.70
2023-03-14T01:05:50.710Z,0.80
2023-03-14T01:06:50.680Z,0.80
2023-03-14T01:07:50.652Z,0.80
2023-03-14T01:08:50.627Z,0.90
2023-03-14T01:09:50.595Z,0.90
2023-03-14T01:10:50.563Z,0.80
2023-03-14T01:11:50.562Z,0.80
2023-03-14T01:12:50.505Z,0.80
2023-03-14T01:13:50.476Z,0.90
2023-03-14T01:14:50.450Z,0.80
2023-03-14T01:15:50.564Z,0.80
2023-03-14T01:16:50.408Z,0.90
2023-03-14T01:17:50.359Z,0.80
2023-03-14T01:18:50.329Z,0.90
2023-03-14T01:19:50.384Z,0.90
2023-03-14T01:20:50.274Z,0.90
2023-03-14T01:21:50.240Z,0.90
2023-03-14T01:22:50.229Z,0.80
2023-03-14T01:23:50.183Z,0.80
2023-03-14T01:24:50.150Z,0.90
2023-03-14T01:25:50.124Z,0.70
2023-03-14T01:26:50.094Z,0.80
2023-03-14T01:27:50.082Z,0.80
2023-03-14T01:28:50.040Z,0.80
2023-03-14T01:29:50.005Z,0.80
2023-03-14T01:30:49.979Z,0.80
2023-03-14T01:31:49.993Z,0.80
2023-03-14T01:32:49.948Z,0.80
2023-03-14T01:33:49.887Z,1.00
2023-03-14T01:34:49.859Z,0.90
2023-03-14T01:35:49.863Z,0.80
2023-03-14T01:36:49.800Z,0.80
2023-03-14T01:37:49.771Z,0.80
2023-03-14T01:38:49.742Z,0.70
2023-03-14T01:39:49.711Z,0.90
2023-03-14T01:40:49.681Z,0.90
2023-03-14T01:41:49.651Z,0.80
2023-03-14T01:42:49.624Z,0.80
2023-03-14T01:43:49.654Z,0.80
2023-03-14T01:44:49.563Z,0.80
2023-03-14T01:45:49.606Z,0.80
2023-03-14T01:46:49.503Z,0.70
2023-03-14T01:47:49.482Z,0.70
2023-03-14T01:48:49.443Z,0.80
2023-03-14T01:49:49.420Z,0.80
2023-03-14T01:50:49.385Z,0.90
2023-03-14T01:51:49.357Z,0.90
2023-03-14T01:52:49.326Z,1.00
2023-03-14T01:53:49.297Z,0.80
2023-03-14T01:54:49.266Z,1.10
2023-03-14T01:55:49.238Z,0.80
2023-03-14T01:56:49.210Z,0.90
2023-03-14T01:57:49.189Z,0.90
2023-03-14T01:58:49.149Z,0.70
2023-03-14T01:59:49.152Z,1.00
2023-03-14T02:00:49.123Z,1.10
2023-03-14T02:01:49.066Z,1.10
2023-03-14T02:02:49.029Z,0.90
2023-03-14T02:03:49.092Z,1.00
2023-03-14T02:04:48.974Z,0.70
2023-03-14T02:05:48.946Z,0.70
2023-03-14T02:06:48.912Z,0.70
2023-03-14T02:07:48.883Z,0.70
2023-03-14T02:08:48.864Z,0.80
2023-03-14T02:09:48.823Z,0.70
2023-03-14T02:10:48.792Z,0.70
2023-03-14T02:11:48.764Z,0.70
2023-03-14T02:12:48.732Z,0.70
2023-03-14T02:13:48.703Z,0.70
2023-03-14T02:14:48.679Z,0.70
2023-03-14T02:15:48.678Z,0.70
2023-03-14T02:16:48.658Z,0.70
2023-03-14T02:17:48.582Z,0.70
2023-03-14T02:18:48.551Z,0.70
2023-03-14T02:19:48.521Z,0.70
2023-03-14T02:20:48.494Z,0.70
2023-03-14T02:21:48.460Z,0.70
2023-03-14T02:22:48.440Z,0.60
2023-03-14T02:23:48.402Z,0.70
2023-03-14T02:24:48.375Z,0.90
2023-03-14T02:25:48.341Z,0.70
2023-03-14T02:26:48.318Z,0.70
2023-03-14T02:27:48.291Z,0.70
2023-03-14T02:28:48.255Z,0.70
2023-03-14T02:29:48.222Z,0.80
2023-03-14T02:30:48.192Z,0.60
2023-03-14T02:31:48.271Z,0.70
2023-03-14T02:32:48.279Z,0.70
2023-03-14T02:33:48.103Z,0.70
2023-03-14T02:34:48.075Z,0.70
2023-03-14T02:35:48.086Z,0.70
2023-03-14T02:36:48.015Z,0.70
2023-03-14T02:37:47.991Z,0.70
2023-03-14T02:38:47.959Z,0.70
2023-03-14T02:39:47.925Z,0.80
2023-03-14T02:40:47.896Z,0.70
2023-03-14T02:41:47.865Z,0.70
2023-03-14T02:42:47.836Z,0.80
2023-03-14T02:43:47.805Z,0.70
2023-03-14T02:44:47.803Z,0.70
2023-03-14T02:45:47.826Z,0.70
2023-03-14T02:46:47.719Z,0.70
2023-03-14T02:47:47.705Z,0.70
2023-03-14T02:48:47.661Z,0.70
2023-03-14T02:49:47.638Z,0.80
2023-03-14T02:50:47.611Z,0.80
2023-03-14T02:51:47.587Z,0.70
2023-03-14T02:52:47.645Z,0.70
2023-03-14T02:53:47.510Z,0.70
2023-03-14T02:54:47.479Z,0.70
2023-03-14T02:55:47.449Z,0.70
2023-03-14T02:56:47.422Z,0.70
2023-03-14T02:57:47.389Z,0.80
2023-03-14T02:58:47.361Z,0.70
2023-03-14T02:59:47.335Z,0.80
2023-03-14T03:00:47.305Z,0.80
2023-03-14T03:01:47.269Z,0.70
2023-03-14T03:02:47.244Z,0.70
2023-03-14T03:03:47.232Z,0.70
2023-03-14T03:04:47.185Z,0.70
2023-03-14T03:05:47.150Z,0.70
2023-03-14T03:06:47.124Z,0.70
2023-03-14T03:07:47.094Z,0.70
2023-03-14T03:08:47.063Z,0.70
2023-03-14T03:09:47.032Z,0.70
2023-03-14T03:10:47.003Z,0.70
2023-03-14T03:11:46.978Z,0.70
2023-03-14T03:12:46.966Z,0.70
2023-03-14T03:13:46.917Z,0.80
2023-03-14T03:14:46.884Z,0.70
2023-03-14T03:15:46.859Z,0.80
2023-03-14T03:16:46.864Z,0.70
2023-03-14T03:17:46.794Z,0.70
2023-03-14T03:18:46.778Z,0.70
2023-03-14T03:19:46.856Z,0.80
2023-03-14T03:20:46.731Z,0.80
2023-03-14T03:21:46.678Z,0.70
2023-03-14T03:22:46.653Z,0.80
2023-03-14T03:23:46.632Z,0.70
2023-03-14T03:24:46.594Z,0.80
2023-03-14T03:25:46.563Z,0.70
2023-03-14T03:26:46.535Z,0.70
2023-03-14T03:27:46.504Z,0.80
2023-03-14T03:28:46.476Z,0.70
2023-03-14T03:29:46.446Z,0.70
2023-03-14T03:30:46.558Z,0.70
2023-03-14T03:31:46.393Z,0.80
2023-03-14T03:32:46.380Z,0.70
2023-03-14T03:33:46.327Z,0.80
2023-03-14T03:34:46.305Z,0.80
2023-03-14T03:35:46.823Z,0.80
2023-03-14T03:36:46.240Z,0.80
2023-03-14T03:37:46.210Z,0.70
2023-03-14T03:38:46.181Z,0.70
2023-03-14T03:39:46.151Z,0.70
2023-03-14T03:40:46.124Z,0.70
2023-03-14T03:41:46.091Z,0.70
2023-03-14T03:42:46.063Z,0.70
2023-03-14T03:43:46.039Z,0.70
2023-03-14T03:44:46.027Z,0.70
2023-03-14T03:45:46.004Z,0.70
2023-03-14T03:46:45.944Z,0.80
2023-03-14T03:47:45.919Z,0.70
2023-03-14T03:48:45.893Z,0.70
2023-03-14T03:49:45.856Z,0.70
2023-03-14T03:50:45.845Z,0.70
2023-03-14T03:51:45.818Z,0.70
2023-03-14T03:52:45.767Z,0.70
2023-03-14T03:53:45.742Z,0.70
2023-03-14T03:54:45.708Z,0.70
2023-03-14T03:55:45.678Z,0.80
2023-03-14T03:56:45.648Z,0.70
2023-03-14T03:57:45.622Z,0.70
2023-03-14T03:58:45.618Z,0.70
2023-03-14T03:59:45.559Z,0.70
2023-03-14T04:00:45.532Z,0.70
2023-03-14T04:01:45.499Z,0.70
2023-03-14T04:02:45.555Z,0.70
2023-03-14T04:03:45.471Z,0.70
2023-03-14T04:04:45.411Z,0.70
2023-03-14T04:05:45.381Z,0.70
2023-03-14T04:06:45.423Z,0.70
2023-03-14T04:07:45.398Z,0.80
2023-03-14T04:08:45.297Z,0.70
2023-03-14T04:09:45.261Z,0.80
2023-03-14T04:10:45.236Z,0.70
2023-03-14T04:11:45.202Z,0.70
2023-03-14T04:12:45.175Z,0.70
2023-03-14T04:13:45.146Z,0.70
2023-03-14T04:14:45.114Z,0.80
2023-03-14T04:15:45.172Z,0.70
2023-03-14T04:16:45.056Z,0.70
2023-03-14T04:17:45.024Z,0.80
2023-03-14T04:18:44.996Z,0.70
2023-03-14T04:19:44.965Z,0.70
2023-03-14T04:20:44.940Z,0.70
2023-03-14T04:21:44.923Z,0.80
2023-03-14T04:22:44.891Z,0.70
2023-03-14T04:23:44.966Z,0.70
2023-03-14T04:24:44.818Z,0.80
2023-03-14T04:25:44.787Z,0.70
2023-03-14T04:26:44.767Z,0.70
2023-03-14T04:27:44.727Z,0.80
2023-03-14T04:28:44.699Z,0.80
2023-03-14T04:29:44.668Z,0.80
2023-03-14T04:30:44.636Z,0.80
2023-03-14T04:31:44.610Z,0.80
2023-03-14T04:32:44.670Z,0.80
2023-03-14T04:33:46.049Z,0.70
2023-03-14T04:34:44.518Z,0.60
2023-03-14T04:35:44.511Z,0.70
2023-03-14T04:36:44.461Z,0.70
2023-03-14T04:37:44.452Z,0.70
2023-03-14T04:38:44.410Z,0.70
2023-03-14T04:39:44.442Z,0.80
2023-03-14T04:40:44.342Z,0.70
2023-03-14T04:41:44.307Z,0.80
2023-03-14T04:42:44.280Z,0.80
2023-03-14T04:43:44.270Z,0.70
2023-03-14T04:44:44.222Z,0.70
2023-03-14T04:45:44.188Z,1.10
2023-03-14T04:46:44.236Z,0.70
2023-03-14T04:47:44.148Z,0.70
2023-03-14T04:48:44.113Z,0.80
2023-03-14T04:49:44.069Z,0.80
2023-03-14T04:50:44.061Z,0.80
2023-03-14T04:51:44.013Z,0.70
2023-03-14T04:52:43.988Z,0.80
2023-03-14T04:53:43.950Z,0.70
2023-03-14T04:54:43.926Z,0.70
2023-03-14T04:55:44.034Z,0.70
2023-03-14T04:56:43.864Z,0.70
2023-03-14T04:57:43.832Z,0.70
2023-03-14T04:58:43.804Z,0.70
2023-03-14T04:59:43.775Z,0.80
2023-03-14T05:00:43.747Z,0.70
2023-03-14T05:01:43.800Z,0.70
2023-03-14T05:02:43.745Z,0.80
2023-03-14T05:03:43.652Z,0.80
2023-03-14T05:04:43.624Z,0.70
2023-03-14T05:05:43.602Z,0.80
2023-03-14T05:06:43.581Z,0.70
2023-03-14T05:07:43.547Z,0.70
2023-03-14T05:08:43.519Z,0.70
2023-03-14T05:09:43.472Z,0.80
2023-03-14T05:10:43.448Z,0.80
2023-03-14T05:11:43.439Z,0.70
2023-03-14T05:12:43.384Z,0.70
2023-03-14T05:13:43.360Z,0.80
2023-03-14T05:14:43.325Z,0.80
2023-03-14T05:15:43.303Z,0.70
2023-03-14T05:16:43.266Z,0.80
2023-03-14T05:17:43.244Z,0.80
2023-03-14T05:18:43.217Z,0.80
2023-03-14T05:19:43.202Z,0.70
2023-03-14T05:20:43.152Z,0.80
2023-03-14T05:21:43.120Z,0.70
2023-03-14T05:22:43.087Z,0.70
2023-03-14T05:23:43.059Z,0.90
2023-03-14T05:24:43.028Z,0.70
2023-03-14T05:25:42.996Z,0.80
2023-03-14T05:26:42.971Z,0.80
2023-03-14T05:27:43.085Z,0.80
2023-03-14T05:28:42.908Z,0.80
2023-03-14T05:29:42.902Z,0.80
2023-03-14T05:30:42.860Z,0.70
2023-03-14T05:31:42.848Z,0.70
2023-03-14T05:32:42.850Z,0.70
2023-03-14T05:33:42.760Z,0.70
2023-03-14T05:34:42.731Z,0.70
2023-03-14T05:35:42.722Z,0.80
2023-03-14T05:36:42.673Z,0.80
2023-03-14T05:37:42.646Z,0.80
2023-03-14T05:38:42.615Z,0.80
2023-03-14T05:39:42.585Z,0.80
2023-03-14T05:40:42.557Z,0.80
2023-03-14T05:41:42.529Z,0.80
2023-03-14T05:42:42.500Z,0.80
2023-03-14T05:43:42.486Z,0.80
2023-03-14T05:44:42.439Z,0.80
2023-03-14T05:45:42.435Z,0.80
2023-03-14T05:46:42.383Z,0.80
2023-03-14T05:47:42.349Z,0.80
2023-03-14T05:48:42.322Z,0.80
2023-03-14T05:49:42.291Z,0.80
2023-03-14T05:50:42.264Z,0.70
2023-03-14T05:51:42.232Z,0.70
2023-03-14T05:52:42.205Z,0.80
2023-03-14T05:53:42.172Z,0.80
2023-03-14T05:54:42.157Z,0.80
2023-03-14T05:55:42.120Z,0.80
2023-03-14T05:56:42.085Z,0.80
2023-03-14T05:57:42.061Z,0.80
2023-03-14T05:58:42.027Z,0.80
2023-03-14T05:59:42.012Z,0.70
2023-03-14T06:00:41.962Z,0.90
2023-03-14T06:01:41.988Z,0.70
2023-03-14T06:02:41.909Z,0.80
2023-03-14T06:03:41.906Z,0.70
2023-03-14T06:04:41.842Z,0.90
2023-03-14T06:05:41.809Z,0.80
2023-03-14T06:06:41.781Z,0.80
2023-03-14T06:07:41.768Z,0.70
2023-03-14T06:08:41.722Z,0.80
2023-03-14T06:09:41.698Z,0.80
2023-03-14T06:10:41.665Z,0.90
2023-03-14T06:11:41.636Z,0.90
2023-03-14T06:12:41.608Z,0.80
2023-03-14T06:13:41.579Z,0.90
2023-03-14T06:14:41.542Z,1.00
2023-03-14T06:15:41.530Z,0.90
2023-03-14T06:16:41.508Z,1.00
2023-03-14T06:17:41.451Z,0.90
2023-03-14T06:18:41.422Z,0.80
2023-03-14T06:19:41.392Z,0.90
2023-03-14T06:20:41.376Z,0.90
2023-03-14T06:21:41.339Z,0.80
2023-03-14T06:22:41.311Z,0.90
2023-03-14T06:23:41.275Z,0.90
2023-03-14T06:24:41.247Z,0.80
2023-03-14T06:25:41.214Z,0.80
2023-03-14T06:26:41.200Z,0.90
2023-03-14T06:27:41.156Z,0.80
2023-03-14T06:28:41.125Z,0.90
2023-03-14T06:29:41.101Z,0.90
2023-03-14T06:30:41.133Z,0.80
2023-03-14T06:31:41.072Z,0.80
2023-03-14T06:32:41.048Z,0.90
2023-03-14T06:33:40.980Z,1.10
2023-03-14T06:34:40.952Z,1.00
2023-03-14T06:35:40.930Z,1.00
2023-03-14T06:36:40.889Z,1.00
2023-03-14T06:37:40.864Z,0.80
2023-03-14T06:38:40.854Z,1.00
2023-03-14T06:39:40.803Z,0.80
2023-03-14T06:40:40.773Z,1.00
2023-03-14T06:41:40.742Z,0.90
2023-03-14T06:42:40.712Z,0.90
2023-03-14T06:43:40.687Z,1.00
2023-03-14T06:44:40.653Z,0.90
2023-03-14T06:45:40.738Z,0.80
2023-03-14T06:46:40.595Z,0.80
2023-03-14T06:47:40.587Z,0.90
2023-03-14T06:48:40.538Z,1.00
2023-03-14T06:49:40.505Z,0.80
2023-03-14T06:50:40.482Z,0.80
2023-03-14T06:51:40.448Z,0.90
2023-03-14T06:52:40.453Z,0.80
2023-03-14T06:53:40.386Z,0.90
2023-03-14T06:54:40.357Z,0.90
2023-03-14T06:55:40.333Z,0.80
2023-03-14T06:56:40.300Z,0.90
2023-03-14T06:57:40.273Z,0.90
2023-03-14T06:58:40.261Z,0.80
2023-03-14T06:59:40.211Z,0.80
2023-03-14T07:00:40.185Z,0.90
2023-03-14T07:01:40.191Z,1.00
2023-03-14T07:02:43.296Z,0.90
2023-03-14T07:03:40.113Z,0.90
2023-03-14T07:04:40.136Z,0.90
2023-03-14T07:05:40.030Z,0.80
2023-03-14T07:06:40.005Z,0.80
2023-03-14T07:07:39.986Z,0.80
2023-03-14T07:08:39.947Z,0.80
2023-03-14T07:09:39.916Z,0.80
2023-03-14T07:10:39.884Z,0.90
2023-03-14T07:11:39.860Z,0.90
2023-03-14T07:12:39.830Z,0.90
2023-03-14T07:13:39.795Z,0.80
2023-03-14T07:14:39.765Z,0.90
2023-03-14T07:15:39.748Z,0.80
2023-03-14T07:16:39.708Z,1.00
2023-03-14T07:17:39.681Z,0.90
2023-03-14T07:18:39.653Z,0.90
2023-03-14T07:19:39.637Z,0.90
2023-03-14T07:20:39.619Z,0.90
2023-03-14T07:21:39.567Z,0.90
2023-03-14T07:22:39.532Z,0.90
2023-03-14T07:23:39.513Z,0.90
2023-03-14T07:24:39.482Z,0.90
2023-03-14T07:25:39.450Z,0.90
2023-03-14T07:26:39.414Z,0.90
2023-03-14T07:27:39.410Z,0.90
2023-03-14T07:28:39.359Z,0.90
2023-03-14T07:29:39.332Z,0.90
2023-03-14T07:30:39.299Z,1.00
2023-03-14T07:31:39.271Z,1.00
2023-03-14T07:32:39.260Z,0.90
2023-03-14T07:33:39.211Z,0.80
2023-03-14T07:34:39.184Z,0.90
2023-03-14T07:35:39.251Z,0.80
2023-03-14T07:36:39.132Z,0.80
2023-03-14T07:37:39.100Z,1.00
2023-03-14T07:38:39.072Z,0.80
2023-03-14T07:39:39.056Z,0.80
2023-03-14T07:40:39.020Z,1.10
2023-03-14T07:41:38.983Z,0.90
2023-03-14T07:42:38.957Z,0.90
2023-03-14T07:43:38.932Z,0.90
2023-03-14T07:44:38.911Z,0.80
2023-03-14T07:45:42.743Z,0.80
2023-03-14T07:46:38.915Z,0.90
2023-03-14T07:47:38.817Z,0.80
2023-03-14T07:48:38.786Z,0.90
2023-03-14T07:49:38.758Z,0.90
2023-03-14T07:50:38.723Z,1.00
2023-03-14T07:51:38.719Z,0.90
2023-03-14T07:52:38.667Z,0.90
2023-03-14T07:53:38.639Z,1.00
2023-03-14T07:54:38.611Z,0.80
2023-03-14T07:55:38.590Z,0.90
2023-03-14T07:56:38.551Z,0.90
2023-03-14T07:57:38.528Z,0.90
2023-03-14T07:58:38.495Z,0.90
2023-03-14T07:59:38.499Z,0.90
2023-03-14T08:00:38.443Z,0.90
2023-03-14T08:01:38.409Z,0.90
2023-03-14T08:02:38.461Z,1.00
2023-03-14T08:03:38.394Z,0.90
2023-03-14T08:04:38.322Z,1.00
2023-03-14T08:05:38.314Z,1.00
2023-03-14T08:06:38.264Z,0.90
2023-03-14T08:07:38.341Z,1.40
2023-03-14T08:08:38.208Z,1.10
2023-03-14T08:09:38.177Z,1.00
2023-03-14T08:10:38.150Z,1.10
2023-03-14T08:11:38.126Z,1.20
2023-03-14T08:12:38.094Z,1.10
2023-03-14T08:13:38.064Z,1.10
2023-03-14T08:14:38.036Z,1.00
2023-03-14T08:15:38.030Z,0.90
2023-03-14T08:16:37.979Z,1.00
2023-03-14T08:17:37.951Z,1.00
2023-03-14T08:18:37.921Z,1.10
2023-03-14T08:19:37.896Z,0.90
2023-03-14T08:20:37.864Z,1.00
2023-03-14T08:21:37.836Z,0.90
2023-03-14T08:22:37.827Z,0.90
2023-03-14T08:23:37.806Z,0.90
2023-03-14T08:24:37.751Z,1.00
2023-03-14T08:25:37.776Z,1.00
2023-03-14T08:26:37.694Z,1.10
2023-03-14T08:27:37.667Z,1.00
2023-03-14T08:28:37.663Z,1.00
2023-03-14T08:29:37.694Z,0.90
2023-03-14T08:30:37.748Z,0.90
2023-03-14T08:31:37.589Z,1.00
2023-03-14T08:32:37.598Z,0.90
2023-03-14T08:33:37.494Z,0.90
2023-03-14T08:34:37.478Z,0.90
2023-03-14T08:35:37.441Z,1.00
2023-03-14T08:36:37.493Z,1.10
2023-03-14T08:37:37.381Z,0.90
2023-03-14T08:38:37.368Z,1.00
2023-03-14T08:39:37.412Z,0.90
2023-03-14T08:40:37.306Z,0.90
2023-03-14T08:41:37.277Z,0.90
2023-03-14T08:42:37.245Z,1.00
2023-03-14T08:43:37.240Z,1.10
2023-03-14T08:44:37.260Z,1.00
2023-03-14T08:45:37.167Z,1.00
2023-03-14T08:46:37.271Z,0.90
2023-03-14T08:47:37.102Z,0.90
2023-03-14T08:48:37.073Z,0.90
2023-03-14T08:49:37.139Z,0.90
2023-03-14T08:50:37.024Z,1.00
2023-03-14T08:51:36.994Z,0.90
2023-03-14T08:52:37.016Z,1.00
2023-03-14T08:53:36.942Z,1.00
2023-03-14T08:54:36.913Z,0.90
2023-03-14T08:55:36.914Z,0.90
2023-03-14T08:56:36.852Z,0.90
2023-03-14T08:57:36.848Z,1.00
2023-03-14T08:58:36.794Z,0.90
2023-03-14T08:59:36.772Z,1.00
2023-03-14T09:00:36.752Z,0.80
2023-03-14T09:01:36.827Z,1.10
2023-03-14T09:02:36.685Z,1.00
2023-03-14T09:03:36.660Z,1.00
2023-03-14T09:04:36.722Z,1.00
2023-03-14T09:05:36.603Z,1.10
2023-03-14T09:06:36.585Z,0.90
2023-03-14T09:07:36.548Z,1.00
2023-03-14T09:08:38.205Z,0.90
2023-03-14T09:09:36.492Z,1.00
2023-03-14T09:10:36.464Z,1.00
2023-03-14T09:11:36.459Z,1.00
2023-03-14T09:12:36.410Z,1.00
2023-03-14T09:13:36.404Z,0.80
2023-03-14T09:14:36.357Z,1.00
2023-03-14T09:15:36.331Z,0.80
2023-03-14T09:16:36.349Z,0.90
2023-03-14T09:17:36.271Z,1.20
2023-03-14T09:18:36.263Z,0.80
2023-03-14T09:19:36.235Z,0.90
2023-03-14T09:20:36.189Z,0.90
2023-03-14T09:21:36.166Z,0.90
2023-03-14T09:22:36.173Z,0.80
2023-03-14T09:23:36.112Z,0.90
2023-03-14T09:24:36.081Z,0.90
2023-03-14T09:25:36.053Z,0.80
2023-03-14T09:26:36.022Z,0.90
2023-03-14T09:27:36.019Z,0.90
2023-03-14T09:28:35.968Z,0.80
2023-03-14T09:29:35.946Z,0.80
2023-03-14T09:30:35.912Z,1.00
2023-03-14T09:31:35.918Z,1.00
2023-03-14T09:32:35.891Z,1.00
2023-03-14T09:33:35.830Z,0.90
2023-03-14T09:34:37.033Z,0.80
2023-03-14T09:35:35.884Z,0.80
2023-03-14T09:36:35.746Z,0.90
2023-03-14T09:37:35.720Z,0.90
2023-03-14T09:38:35.693Z,0.80
2023-03-14T09:39:35.667Z,0.90
2023-03-14T09:40:35.641Z,0.90
2023-03-14T09:41:35.612Z,0.80
2023-03-14T09:42:35.591Z,0.90
2023-03-14T09:43:35.584Z,0.90
2023-03-14T09:44:35.525Z,0.80
2023-03-14T09:45:35.528Z,0.90
2023-03-14T09:46:35.470Z,0.90
2023-03-14T09:47:36.677Z,0.90
2023-03-14T09:48:35.413Z,0.90
2023-03-14T09:49:35.439Z,1.10
2023-03-14T09:50:35.360Z,0.90
2023-03-14T09:51:35.329Z,0.90
2023-03-14T09:52:35.303Z,1.00
2023-03-14T09:53:35.274Z,0.90
2023-03-14T09:54:35.253Z,1.00
2023-03-14T09:55:36.653Z,0.90
2023-03-14T09:56:35.192Z,0.90
2023-03-14T09:57:35.167Z,0.90
2023-03-14T09:58:35.134Z,0.90
2023-03-14T09:59:35.138Z,1.00
2023-03-14T10:00:35.081Z,0.90
2023-03-14T10:01:35.152Z,1.00
2023-03-14T10:02:35.025Z,1.10
2023-03-14T10:03:35.008Z,0.90
2023-03-14T10:04:35.029Z,0.90
2023-03-14T10:05:34.938Z,1.00
2023-03-14T10:06:34.913Z,0.90
2023-03-14T10:07:34.883Z,0.90
2023-03-14T10:08:34.854Z,1.00
2023-03-14T10:09:34.828Z,1.00
2023-03-14T10:10:34.801Z,1.00
2023-03-14T10:11:34.775Z,0.90
2023-03-14T10:12:34.793Z,0.80
2023-03-14T10:13:34.716Z,0.90
2023-03-14T10:14:34.688Z,0.90
2023-03-14T10:15:34.678Z,0.80
2023-03-14T10:16:34.732Z,0.90
2023-03-14T10:17:34.602Z,1.00
2023-03-14T10:18:34.580Z,1.00
2023-03-14T10:19:34.549Z,1.10
2023-03-14T10:20:34.554Z,1.00
2023-03-14T10:21:34.491Z,0.90
2023-03-14T10:22:34.460Z,0.80
2023-03-14T10:23:34.439Z,1.00
2023-03-14T10:24:34.403Z,1.00
2023-03-14T10:25:34.409Z,0.90
2023-03-14T10:26:34.346Z,1.00
2023-03-14T10:27:34.326Z,0.90
2023-03-14T10:28:34.295Z,0.90
2023-03-14T10:29:34.260Z,0.90
2023-03-14T10:30:34.236Z,0.80
2023-03-14T10:31:34.236Z,1.00
2023-03-14T10:32:34.265Z,1.00
2023-03-14T10:33:34.151Z,0.90
2023-03-14T10:34:34.120Z,0.90
2023-03-14T10:35:34.116Z,0.90
2023-03-14T10:36:34.063Z,0.90
2023-03-14T10:37:34.040Z,1.00
2023-03-14T10:38:34.015Z,0.90
2023-03-14T10:39:33.990Z,1.00
2023-03-14T10:40:33.970Z,0.90
2023-03-14T10:41:33.928Z,0.90
2023-03-14T10:42:33.895Z,0.90
2023-03-14T10:43:33.868Z,0.80
2023-03-14T10:44:33.841Z,0.90
2023-03-14T10:45:33.815Z,0.90
2023-03-14T10:46:33.830Z,0.80
2023-03-14T10:47:33.790Z,0.90
2023-03-14T10:48:33.728Z,0.80
2023-03-14T10:49:33.698Z,0.90
2023-03-14T10:50:33.673Z,1.00
2023-03-14T10:51:33.641Z,0.90
2023-03-14T10:52:51.323Z,0.80
2023-03-14T10:53:33.589Z,0.90
2023-03-14T10:54:33.558Z,0.90
2023-03-14T10:55:33.528Z,0.90
2023-03-14T10:56:33.502Z,0.80
2023-03-14T10:57:33.472Z,0.80
2023-03-14T10:58:33.462Z,0.90
2023-03-14T10:59:33.422Z,0.80
2023-03-14T11:00:33.386Z,0.80
2023-03-14T11:01:33.457Z,0.90
2023-03-14T11:02:33.341Z,0.90
2023-03-14T11:03:33.381Z,0.90
2023-03-14T11:04:33.446Z,0.80
2023-03-14T11:05:33.241Z,0.90
2023-03-14T11:06:33.222Z,0.80
2023-03-14T11:07:33.185Z,1.00
2023-03-14T11:08:33.165Z,0.90
2023-03-14T11:09:33.127Z,1.10
2023-03-14T11:10:33.098Z,1.00
2023-03-14T11:11:33.067Z,0.90
2023-03-14T11:12:33.040Z,0.80
2023-03-14T11:13:33.008Z,1.00
2023-03-14T11:14:32.984Z,0.90
2023-03-14T11:15:33.006Z,1.00
2023-03-14T11:16:32.927Z,0.90
2023-03-14T11:17:32.892Z,1.00
2023-03-14T11:18:32.863Z,1.00
2023-03-14T11:19:34.417Z,0.90
2023-03-14T11:20:32.805Z,0.90
2023-03-14T11:21:32.779Z,0.90
2023-03-14T11:22:32.748Z,0.90
2023-03-14T11:23:32.743Z,0.90
2023-03-14T11:24:32.686Z,0.90
2023-03-14T11:25:32.655Z,0.90
2023-03-14T11:26:32.634Z,0.80
2023-03-14T11:27:32.594Z,0.90
2023-03-14T11:28:32.571Z,0.80
2023-03-14T11:29:32.540Z,0.80
2023-03-14T11:30:32.509Z,0.90
2023-03-14T11:31:32.488Z,0.90
2023-03-14T11:32:32.551Z,0.90
2023-03-14T11:33:32.417Z,1.00
2023-03-14T11:34:32.388Z,0.80
2023-03-14T11:35:32.738Z,0.80
2023-03-14T11:36:32.328Z,0.90
2023-03-14T11:37:32.298Z,0.80
2023-03-14T11:38:32.279Z,0.80
2023-03-14T11:39:32.237Z,0.80
2023-03-14T11:40:32.207Z,0.80
2023-03-14T11:41:32.174Z,0.80
2023-03-14T11:42:32.151Z,0.80
2023-03-14T11:43:32.115Z,0.90
2023-03-14T11:44:32.129Z,0.80
2023-03-14T11:45:32.058Z,0.90
2023-03-14T11:46:32.103Z,0.80
2023-03-14T11:47:32.007Z,0.80
2023-03-14T11:48:31.966Z,0.80
2023-03-14T11:49:31.935Z,0.70
2023-03-14T11:50:31.906Z,0.80
2023-03-14T11:51:31.899Z,0.80
2023-03-14T11:52:31.847Z,0.80
2023-03-14T11:53:31.813Z,0.80
2023-03-14T11:54:31.782Z,0.80
2023-03-14T11:55:31.758Z,0.90
2023-03-14T11:56:31.726Z,0.80
2023-03-14T11:57:31.691Z,0.80
2023-03-14T11:58:31.664Z,0.70
2023-03-14T11:59:31.630Z,0.80
2023-03-14T12:00:31.598Z,0.70
2023-03-14T12:01:31.568Z,0.70
2023-03-14T12:02:31.538Z,0.70
2023-03-14T12:03:31.565Z,0.80
2023-03-14T12:04:31.480Z,0.80
2023-03-14T12:05:31.470Z,0.80
2023-03-14T12:06:31.628Z,0.70
2023-03-14T12:07:31.464Z,0.80
2023-03-14T12:08:31.363Z,0.80
2023-03-14T12:09:31.325Z,0.80
2023-03-14T12:10:33.308Z,0.70
2023-03-14T12:11:31.265Z,0.70
2023-03-14T12:12:31.237Z,0.70
2023-03-14T12:13:31.202Z,0.70
2023-03-14T12:14:31.174Z,0.80
2023-03-14T12:15:31.144Z,0.70
2023-03-14T12:16:31.159Z,0.70
2023-03-14T12:17:31.082Z,0.70
2023-03-14T12:18:31.054Z,0.70
2023-03-14T12:19:31.031Z,0.80
2023-03-14T12:20:31.163Z,0.70
2023-03-14T12:21:30.965Z,0.80
2023-03-14T12:22:30.931Z,0.80
2023-03-14T12:23:31.024Z,0.80
2023-03-14T12:24:32.855Z,0.80
2023-03-14T12:25:30.844Z,0.70
2023-03-14T12:26:30.819Z,0.80
2023-03-14T12:27:30.782Z,0.80
2023-03-14T12:28:30.757Z,0.90
2023-03-14T12:29:30.723Z,0.80
2023-03-14T12:30:30.722Z,0.80
2023-03-14T12:31:30.705Z,0.90
2023-03-14T12:32:30.673Z,0.90
2023-03-14T12:33:30.600Z,0.70
2023-03-14T12:34:30.578Z,0.80
2023-03-14T12:35:30.568Z,0.80
2023-03-14T12:36:30.511Z,0.80
2023-03-14T12:37:30.484Z,0.80
2023-03-14T12:38:30.451Z,1.00
2023-03-14T12:39:30.442Z,0.80
2023-03-14T12:40:30.605Z,0.80
2023-03-14T12:41:30.373Z,0.90
2023-03-14T12:42:44.069Z,0.70
2023-03-14T12:43:30.299Z,0.90
2023-03-14T12:44:30.269Z,0.70
2023-03-14T12:45:30.254Z,0.80
2023-03-14T12:46:30.289Z,0.70
2023-03-14T12:47:30.179Z,0.80
2023-03-14T12:48:30.154Z,0.80
2023-03-14T12:49:30.119Z,0.80
2023-03-14T12:50:30.093Z,0.80
2023-03-14T12:51:30.060Z,0.90
2023-03-14T12:52:30.038Z,1.00
2023-03-14T12:53:30.254Z,0.90
2023-03-14T12:54:29.973Z,0.90
2023-03-14T12:55:29.977Z,1.00
2023-03-14T12:56:29.913Z,1.00
2023-03-14T12:57:29.882Z,0.90
2023-03-14T12:58:29.853Z,1.00
2023-03-14T12:59:29.824Z,0.90
2023-03-14T13:00:29.796Z,1.00
2023-03-14T13:01:29.823Z,1.10
2023-03-14T13:02:29.745Z,1.00
2023-03-14T13:03:29.853Z,1.00
2023-03-14T13:04:38.930Z,0.90
2023-03-14T13:05:29.796Z,1.00
2023-03-14T13:06:29.618Z,0.90
2023-03-14T13:07:29.600Z,0.90
2023-03-14T13:08:29.557Z,1.10
2023-03-14T13:09:29.526Z,1.10
2023-03-14T13:10:29.497Z,1.00
2023-03-14T13:11:29.535Z,1.00
2023-03-14T13:12:29.438Z,1.10
2023-03-14T13:13:29.413Z,1.00
2023-03-14T13:14:29.378Z,0.90
2023-03-14T13:15:29.350Z,0.90
2023-03-14T13:16:29.417Z,0.90
2023-03-14T13:17:35.580Z,1.20
2023-03-14T13:18:29.260Z,1.10